Time,TemperatureF,DewpointF,PressureIn,WindDirection,WindDirectionDegrees,WindSpeedMPH,WindSpeedGustMPH,Humidity,HourlyPrecipIn,Conditions,Clouds,dailyrainin,SoftwareType,DateUTC
2013-07-04 00:00:00,59.2,52.0,30.17,SSW,207,6.0,-999.0,77,-99.99,,,0.23,weatherlink.com 1.10,2013-07-04 04:00:00,
2013-07-04 00:15:00,59.3,52.0,30.17,SSW,198,8.0,-999.0,76,-99.99,,,0.02,weatherlink.com 1.10,2013-07-04 04:15:00,
2013-07-04 00:30:00,59.4,52.0,30.17,South,186,7.0,-999.0,76,-99.99,,,0.07,weatherlink.com 1.10,2013-07-04 04:30:00,
2013-07-04 00:45:00,59.2,52.0,30.17,SE,130,4.0,-999.0,76,-99.99,,,0.07,weatherlink.com 1.10,2013-07-04 04:45:00,
2013-07-04 01:00:00,59.2,51.0,30.16,SE,141,6.0,-999.0,75,-99.99,,,0.07,weatherlink.com 1.10,2013-07-04 05:00:00,
2013-07-04 01:15:00,59.5,52.0,30.16,SSW,200,8.0,-999.0,75,-99.99,,,0.07,weatherlink.com 1.10,2013-07-04 05:15:00,
2013-07-04 01:30:00,59.6,51.0,30.16,ENE,60,4.0,-999.0,74,-99.99,,,0.07,weatherlink.com 1.10,2013-07-04 05:30:00,
2013-07-04 01:45:00,60.0,51.0,30.17,South,178,10.0,-999.0,73,-99.99,,,0.07,weatherlink.com 1.10,2013-07-04 05:45:00,
2013-07-04 02:00:00,60.5,52.0,30.17,South,176,5.0,-999.0,73,-99.99,,,0.07,weatherlink.com 1.10,2013-07-04 06:00:00,
2013-07-04 02:15:00,60.6,52.0,30.16,SSE,155,13.0,-999.0,73,-99.99,,,0.08,weatherlink.com 1.10,2013-07-04 06:15:00,
2013-07-04 02:30:00,60.7,52.0,30.16,SSW,211,5.0,-999.0,72,-99.99,,,0.08,weatherlink.com 1.10,2013-07-04 06:30:00,
2013-07-04 02:45:00,60.8,52.0,30.16,South,191,4.0,-999.0,72,-99.99,,,0.08,weatherlink.com 1.10,2013-07-04 06:45:00,
2013-07-04 03:00:00,60.8,52.0,30.15,SW,215,7.0,-999.0,72,-99.99,,,0.08,weatherlink.com 1.10,2013-07-04 07:00:00,
2013-07-04 03:15:00,60.9,52.0,30.15,SSW,213,5.0,-999.0,72,-99.99,,,0.08,weatherlink.com 1.10,2013-07-04 07:15:00,
2013-07-04 03:30:00,60.9,52.0,30.15,SW,215,8.0,-999.0,72,-99.99,,,0.08,weatherlink.com 1.10,2013-07-04 07:30:00,
2013-07-04 03:45:00,60.8,52.0,30.16,SSW,211,7.0,-999.0,72,-99.99,,,0.08,weatherlink.com 1.10,2013-07-04 07:45:00,
2013-07-04 04:00:00,60.3,51.0,30.16,SSE,165,4.0,-999.0,72,-99.99,,,0.08,weatherlink.com 1.10,2013-07-04 08:00:00,
2013-07-04 04:15:00,60.2,51.0,30.16,South,169,1.0,-999.0,72,-99.99,,,0.08,weatherlink.com 1.10,2013-07-04 08:15:00,
2013-07-04 04:30:00,60.2,51.0,30.16,SSW,204,11.0,-999.0,72,-99.99,,,0.08,weatherlink.com 1.10,2013-07-04 08:30:00,
2013-07-04 04:45:00,60.3,51.0,30.16,SSW,200,6.0,-999.0,72,-99.99,,,0.08,weatherlink.com 1.10,2013-07-04 08:45:00,
2013-07-04 05:00:00,60.3,51.0,30.16,SW,215,9.0,-999.0,72,-99.99,,,0.08,weatherlink.com 1.10,2013-07-04 09:00:00,
2013-07-04 05:16:00,60.2,51.0,30.16,SSW,205,5.0,-999.0,72,-99.99,,,0.08,weatherlink.com 1.10,2013-07-04 09:16:00,
2013-07-04 05:31:00,60.3,51.0,30.16,South,183,5.0,-999.0,72,-99.99,,,0.08,weatherlink.com 1.10,2013-07-04 09:31:00,
2013-07-04 05:46:00,60.2,51.0,30.17,SSW,200,6.0,-999.0,72,-99.99,,,0.08,weatherlink.com 1.10,2013-07-04 09:46:00,
2013-07-04 06:01:00,60.4,51.0,30.17,South,180,5.0,-999.0,72,-99.99,,,0.08,weatherlink.com 1.10,2013-07-04 10:01:00,
2013-07-04 06:16:00,60.2,51.0,30.18,SSW,194,3.0,-999.0,72,-99.99,,,0.08,weatherlink.com 1.10,2013-07-04 10:16:00,
2013-07-04 06:31:00,60.3,51.0,30.18,South,184,10.0,-999.0,72,-99.99,,,0.08,weatherlink.com 1.10,2013-07-04 10:31:00,
2013-07-04 06:46:00,60.4,51.0,30.19,South,173,4.0,-999.0,72,-99.99,,,0.08,weatherlink.com 1.10,2013-07-04 10:46:00,
2013-07-04 07:01:00,60.5,51.0,30.20,SSW,209,6.0,-999.0,72,-99.99,,,0.08,weatherlink.com 1.10,2013-07-04 11:01:00,
2013-07-04 07:16:00,60.5,51.0,30.20,SW,221,5.0,-999.0,72,-99.99,,,0.08,weatherlink.com 1.10,2013-07-04 11:16:00,
2013-07-04 07:31:00,60.5,51.0,30.20,SSW,197,8.0,-999.0,72,-99.99,,,0.08,weatherlink.com 1.10,2013-07-04 11:31:00,
2013-07-04 07:46:00,60.6,52.0,30.20,SSW,200,5.0,-999.0,72,-99.99,,,0.09,weatherlink.com 1.10,2013-07-04 11:46:00,
2013-07-04 08:01:00,60.4,51.0,30.21,SSW,200,9.0,-999.0,72,-99.99,,,0.10,weatherlink.com 1.10,2013-07-04 12:01:00,
2013-07-04 08:16:00,60.6,52.0,30.21,SSW,204,7.0,-999.0,72,-99.99,,,0.10,weatherlink.com 1.10,2013-07-04 12:16:00,
2013-07-04 08:31:00,60.8,52.0,30.21,SSE,167,6.0,-999.0,72,-99.99,,,0.11,weatherlink.com 1.10,2013-07-04 12:31:00,
2013-07-04 08:46:00,60.8,52.0,30.21,South,189,4.0,-999.0,72,-99.99,,,0.11,weatherlink.com 1.10,2013-07-04 12:46:00,
2013-07-04 09:01:00,61.7,53.0,30.21,SSE,163,6.0,-999.0,73,-99.99,,,0.11,weatherlink.com 1.10,2013-07-04 13:01:00,
2013-07-04 09:16:00,62.4,53.0,30.21,SW,219,5.0,-999.0,72,-99.99,,,0.11,weatherlink.com 1.10,2013-07-04 13:16:00,
2013-07-04 09:31:00,62.7,53.0,30.22,South,191,3.0,-999.0,71,-99.99,,,0.11,weatherlink.com 1.10,2013-07-04 13:31:00,
2013-07-04 09:46:00,64.5,56.0,30.21,SW,234,5.0,-999.0,73,-99.99,,,0.11,weatherlink.com 1.10,2013-07-04 13:46:00,
2013-07-04 10:01:00,66.7,64.0,30.20,SSW,209,7.0,-999.0,91,-99.99,,,0.11,weatherlink.com 1.10,2013-07-04 14:01:00,
2013-07-04 10:16:00,67.3,64.0,30.20,SSE,163,5.0,-999.0,88,-99.99,,,0.11,weatherlink.com 1.10,2013-07-04 14:16:00,
2013-07-04 10:31:00,67.8,64.0,30.19,South,180,4.0,-999.0,86,-99.99,,,0.11,weatherlink.com 1.10,2013-07-04 14:31:00,
2013-07-04 10:46:00,67.2,63.0,30.19,SSW,211,4.0,-999.0,87,-99.99,,,0.11,weatherlink.com 1.10,2013-07-04 14:46:00,
2013-07-04 11:01:00,67.5,63.0,30.19,SSW,200,6.0,-999.0,86,-99.99,,,0.11,weatherlink.com 1.10,2013-07-04 15:01:00,
2013-07-04 11:16:00,66.9,63.0,30.19,South,186,2.0,-999.0,87,-99.99,,,0.11,weatherlink.com 1.10,2013-07-04 15:16:00,
2013-07-04 11:31:00,68.4,63.0,30.20,SSW,200,13.0,-999.0,84,-99.99,,,0.11,weatherlink.com 1.10,2013-07-04 15:31:00,
2013-07-04 11:46:00,67.1,63.0,30.19,South,179,6.0,-999.0,87,-99.99,,,0.11,weatherlink.com 1.10,2013-07-04 15:46:00,
2013-07-04 12:01:00,67.2,64.0,30.19,SSW,198,6.0,-999.0,89,-99.99,,,0.11,weatherlink.com 1.10,2013-07-04 16:01:00,
2013-07-04 12:16:00,68.4,64.0,30.19,SSW,200,7.0,-999.0,87,-99.99,,,0.11,weatherlink.com 1.10,2013-07-04 16:16:00,
2013-07-04 12:31:00,70.6,65.0,30.19,SSE,161,5.0,-999.0,82,-99.99,,,0.11,weatherlink.com 1.10,2013-07-04 16:31:00,
2013-07-04 12:46:00,70.9,64.0,30.18,SSE,159,5.0,-999.0,80,-99.99,,,0.11,weatherlink.com 1.10,2013-07-04 16:46:00,
2013-07-04 13:01:00,71.1,64.0,30.18,SSE,153,6.0,-999.0,79,-99.99,,,0.11,weatherlink.com 1.10,2013-07-04 17:01:00,
2013-07-04 13:16:00,70.6,65.0,30.18,SSE,165,4.0,-999.0,81,-99.99,,,0.11,weatherlink.com 1.10,2013-07-04 17:16:00,
2013-07-04 13:31:00,67.8,63.0,30.18,SSW,192,6.0,-999.0,84,-99.99,,,0.11,weatherlink.com 1.10,2013-07-04 17:31:00,
2013-07-04 13:46:00,68.0,64.0,30.18,SSW,213,5.0,-999.0,87,-99.99,,,0.11,weatherlink.com 1.10,2013-07-04 17:46:00,
2013-07-04 14:01:00,67.0,64.0,30.17,South,178,8.0,-999.0,89,-99.99,,,0.11,weatherlink.com 1.10,2013-07-04 18:01:00,
2013-07-04 14:16:00,70.2,65.0,30.17,South,188,2.0,-999.0,83,-99.99,,,0.11,weatherlink.com 1.10,2013-07-04 18:16:00,
2013-07-04 14:31:00,70.1,65.0,30.17,SSW,209,5.0,-999.0,83,-99.99,,,0.11,weatherlink.com 1.10,2013-07-04 18:31:00,
2013-07-04 14:46:00,69.7,65.0,30.16,SSE,167,6.0,-999.0,86,-99.99,,,0.11,weatherlink.com 1.10,2013-07-04 18:46:00,
2013-07-04 15:01:00,71.8,65.0,30.16,WNW,284,2.0,-999.0,80,-99.99,,,0.11,weatherlink.com 1.10,2013-07-04 19:01:00,
2013-07-04 15:16:00,71.5,66.0,30.16,SSW,195,2.0,-999.0,82,-99.99,,,0.11,weatherlink.com 1.10,2013-07-04 19:16:00,
2013-07-04 15:31:00,67.3,64.0,30.15,South,190,5.0,-999.0,90,-99.99,,,0.11,weatherlink.com 1.10,2013-07-04 19:31:00,
2013-07-04 15:46:00,70.5,66.0,30.15,SSW,198,4.0,-999.0,84,-99.99,,,0.11,weatherlink.com 1.10,2013-07-04 19:46:00,
2013-07-04 16:01:00,72.7,66.0,30.14,South,181,4.0,-999.0,80,-99.99,,,0.11,weatherlink.com 1.10,2013-07-04 20:01:00,
2013-07-04 16:16:00,72.1,66.0,30.14,SW,226,14.0,-999.0,80,-99.99,,,0.11,weatherlink.com 1.10,2013-07-04 20:16:00,
2013-07-04 16:31:00,72.9,65.0,30.13,South,189,5.0,-999.0,77,-99.99,,,0.11,weatherlink.com 1.10,2013-07-04 20:31:00,
2013-07-04 16:46:00,70.0,65.0,30.12,SE,143,8.0,-999.0,83,-99.99,,,0.11,weatherlink.com 1.10,2013-07-04 20:46:00,
2013-07-04 17:02:00,68.1,64.0,30.12,SSW,212,7.0,-999.0,87,-99.99,,,0.11,weatherlink.com 1.10,2013-07-04 21:02:00,
2013-07-04 17:17:00,68.6,64.0,30.12,ESE,105,4.0,-999.0,85,-99.99,,,0.11,weatherlink.com 1.10,2013-07-04 21:17:00,
2013-07-04 17:32:00,69.3,64.0,30.12,WSW,241,2.0,-999.0,83,-99.99,,,0.11,weatherlink.com 1.10,2013-07-04 21:32:00,
2013-07-04 17:47:00,70.2,64.0,30.12,South,177,9.0,-999.0,80,-99.99,,,0.11,weatherlink.com 1.10,2013-07-04 21:47:00,
2013-07-04 18:02:00,70.1,64.0,30.13,SSW,207,4.0,-999.0,81,-99.99,,,0.11,weatherlink.com 1.10,2013-07-04 22:02:00,
2013-07-04 18:17:00,69.7,64.0,30.13,SSW,200,6.0,-999.0,81,-99.99,,,0.11,weatherlink.com 1.10,2013-07-04 22:17:00,
2013-07-04 18:32:00,69.7,63.0,30.13,SSW,209,4.0,-999.0,78,-99.99,,,0.11,weatherlink.com 1.10,2013-07-04 22:32:00,
2013-07-04 18:47:00,71.0,64.0,30.13,SSW,195,8.0,-999.0,78,-99.99,,,0.11,weatherlink.com 1.10,2013-07-04 22:47:00,
2013-07-04 19:02:00,69.6,63.0,30.14,South,178,5.0,-999.0,80,-99.99,,,0.11,weatherlink.com 1.10,2013-07-04 23:02:00,
2013-07-04 19:17:00,68.1,63.0,30.13,SSW,205,9.0,-999.0,83,-99.99,,,0.11,weatherlink.com 1.10,2013-07-04 23:17:00,
2013-07-04 19:32:00,67.5,63.0,30.14,South,189,7.0,-999.0,85,-99.99,,,0.11,weatherlink.com 1.10,2013-07-04 23:32:00,
2013-07-04 19:47:00,67.1,63.0,30.14,South,186,7.0,-999.0,87,-99.99,,,0.11,weatherlink.com 1.10,2013-07-04 23:47:00,
2013-07-04 20:02:00,65.8,63.0,30.14,NNW,331,3.0,-999.0,90,-99.99,,,0.11,weatherlink.com 1.10,2013-07-05 00:02:00,
2013-07-04 20:17:00,64.5,62.0,30.15,SSW,196,4.0,-999.0,92,-99.99,,,0.11,weatherlink.com 1.10,2013-07-05 00:17:00,
2013-07-04 20:32:00,63.6,62.0,30.16,SSE,152,7.0,-999.0,93,-99.99,,,0.11,weatherlink.com 1.10,2013-07-05 00:32:00,
2013-07-04 20:47:00,63.2,61.0,30.14,South,188,8.0,-999.0,93,-99.99,,,0.11,weatherlink.com 1.10,2013-07-05 00:47:00,
2013-07-04 21:02:00,63.0,61.0,30.14,South,185,11.0,-999.0,93,-99.99,,,0.11,weatherlink.com 1.10,2013-07-05 01:02:00,
2013-07-04 21:17:00,62.4,60.0,30.14,SSE,163,8.0,-999.0,91,-99.99,,,0.11,weatherlink.com 1.10,2013-07-05 01:17:00,
2013-07-04 21:32:00,62.2,59.0,30.14,South,179,7.0,-999.0,90,-99.99,,,0.11,weatherlink.com 1.10,2013-07-05 01:32:00,
2013-07-04 21:47:00,62.2,60.0,30.14,SSE,153,7.0,-999.0,91,-99.99,,,0.11,weatherlink.com 1.10,2013-07-05 01:47:00,
2013-07-04 22:02:00,62.2,59.0,30.14,SW,219,6.0,-999.0,90,-99.99,,,0.11,weatherlink.com 1.10,2013-07-05 02:02:00,
2013-07-04 22:17:00,62.0,59.0,30.14,South,185,9.0,-999.0,89,-99.99,,,0.11,weatherlink.com 1.10,2013-07-05 02:17:00,
2013-07-04 22:32:00,61.8,57.0,30.14,SSE,162,8.0,-999.0,85,-99.99,,,0.11,weatherlink.com 1.10,2013-07-05 02:32:00,
2013-07-04 22:47:00,61.8,57.0,30.15,SSW,209,5.0,-999.0,83,-99.99,,,0.11,weatherlink.com 1.10,2013-07-05 02:47:00,
2013-07-04 23:02:00,61.5,56.0,30.15,SSW,195,10.0,-999.0,82,-99.99,,,0.11,weatherlink.com 1.10,2013-07-05 03:02:00,
2013-07-04 23:17:00,61.6,57.0,30.16,South,171,10.0,-999.0,84,-99.99,,,0.11,weatherlink.com 1.10,2013-07-05 03:17:00,
2013-07-04 23:32:00,61.7,56.0,30.16,SSW,202,11.0,-999.0,82,-99.99,,,0.11,weatherlink.com 1.10,2013-07-05 03:32:00,
2013-07-04 23:47:00,61.4,56.0,30.16,South,180,16.0,-999.0,82,-99.99,,,0.11,weatherlink.com 1.10,2013-07-05 03:47:00,